createdAt,value
2023-01-20T00:01:25.538Z,-2.78
2023-01-20T00:03:54.216Z,-2.71
2023-01-20T00:06:22.280Z,-2.55
2023-01-20T00:08:53.133Z,-2.39
2023-01-20T00:11:20.887Z,-2.31
2023-01-20T00:13:48.018Z,-2.18
2023-01-20T00:16:15.077Z,-2.08
2023-01-20T00:18:41.799Z,-2.01
2023-01-20T00:21:12.193Z,-2.04
2023-01-20T00:23:40.854Z,-2.13
2023-01-20T00:26:09.931Z,-2.09
2023-01-20T00:28:37.201Z,-2.15
2023-01-20T00:31:14.909Z,-2.03
2023-01-20T00:33:42.382Z,-1.97
2023-01-20T00:36:10.419Z,-2.01
2023-01-20T00:38:37.335Z,-1.93
2023-01-20T00:41:04.056Z,-1.88
2023-01-20T00:43:30.767Z,-1.89
2023-01-20T00:45:57.438Z,-1.98
2023-01-20T00:48:24.070Z,-1.98
2023-01-20T00:50:50.758Z,-2.01
2023-01-20T00:53:17.950Z,-2.01
2023-01-20T00:55:44.632Z,-1.99
2023-01-20T00:58:11.208Z,-2.02
2023-01-20T01:00:37.889Z,-2.04
2023-01-20T01:03:05.665Z,-1.99
2023-01-20T01:05:33.019Z,-1.88
2023-01-20T01:07:59.734Z,-1.99
2023-01-20T01:10:26.368Z,-2.15
2023-01-20T01:12:52.969Z,-2.22
2023-01-20T01:15:19.619Z,-2.23
2023-01-20T01:17:46.339Z,-2.25
2023-01-20T01:20:13.852Z,-2.23
2023-01-20T01:22:40.765Z,-2.29
2023-01-20T01:25:07.850Z,-2.37
2023-01-20T01:27:34.503Z,-2.26
2023-01-20T01:30:01.202Z,-2.21
2023-01-20T01:32:28.398Z,-2.16
2023-01-20T01:34:55.051Z,-2.04
2023-01-20T01:37:21.631Z,-2.17
2023-01-20T01:39:48.604Z,-2.18
2023-01-20T01:42:18.223Z,-2.15
2023-01-20T01:45:13.502Z,-2.17
2023-01-20T01:47:46.397Z,-2.16
2023-01-20T01:50:21.560Z,-2.30
2023-01-20T01:52:52.715Z,-2.37
2023-01-20T01:55:22.691Z,-2.41
2023-01-20T01:57:51.636Z,-2.38
2023-01-20T02:00:18.727Z,-2.43
2023-01-20T02:02:45.679Z,-2.58
2023-01-20T02:05:14.606Z,-2.54
2023-01-20T02:07:45.331Z,-2.55
2023-01-20T02:10:12.832Z,-2.58
2023-01-20T02:12:40.973Z,-2.59
2023-01-20T02:15:08.432Z,-2.62
2023-01-20T02:17:53.951Z,-2.66
2023-01-20T02:20:49.397Z,-2.71
2023-01-20T02:23:34.368Z,-2.63
2023-01-20T02:26:24.407Z,-2.58
2023-01-20T02:29:09.358Z,-2.55
2023-01-20T02:32:13.361Z,-2.51
2023-01-20T02:34:42.739Z,-2.60
2023-01-20T02:37:19.792Z,-2.46
2023-01-20T02:39:46.299Z,-2.52
2023-01-20T02:42:24.546Z,-2.41
2023-01-20T02:45:04.303Z,-2.42
2023-01-20T02:47:54.892Z,-2.46
2023-01-20T02:50:29.388Z,-2.44
2023-01-20T02:52:59.673Z,-2.38
2023-01-20T02:55:34.884Z,-2.50
2023-01-20T02:58:07.316Z,-2.58
2023-01-20T03:00:51.931Z,-2.59
2023-01-20T03:03:25.240Z,-2.66
2023-01-20T03:05:59.390Z,-2.68
2023-01-20T03:08:30.701Z,-2.64
2023-01-20T03:11:07.543Z,-2.67
2023-01-20T03:13:58.033Z,-2.64
2023-01-20T03:16:27.893Z,-2.56
2023-01-20T03:18:55.279Z,-2.60
2023-01-20T03:21:22.354Z,-2.59
2023-01-20T03:23:53.109Z,-2.68
2023-01-20T03:26:22.622Z,-2.63
2023-01-20T03:28:49.670Z,-2.61
2023-01-20T03:31:22.013Z,-2.42
2023-01-20T03:33:51.523Z,-2.46
2023-01-20T03:36:19.768Z,-2.63
2023-01-20T03:38:46.771Z,-2.50
2023-01-20T03:41:35.100Z,-2.50
2023-01-20T03:44:20.180Z,-2.42
2023-01-20T03:46:59.111Z,-2.57
2023-01-20T03:49:53.529Z,-2.55
2023-01-20T03:52:47.869Z,-2.47
2023-01-20T03:55:26.539Z,-2.63
2023-01-20T03:58:04.644Z,-2.57
2023-01-20T04:00:37.923Z,-2.58
2023-01-20T04:03:19.682Z,-2.62
2023-01-20T04:05:49.106Z,-2.69
2023-01-20T04:08:17.997Z,-2.68
2023-01-20T04:10:48.526Z,-2.76
2023-01-20T04:13:15.902Z,-2.71
2023-01-20T04:15:44.854Z,-2.78
2023-01-20T04:18:22.752Z,-2.79
2023-01-20T04:20:53.277Z,-2.81
2023-01-20T04:23:25.163Z,-2.86
2023-01-20T04:25:51.855Z,-2.87
2023-01-20T04:28:18.743Z,-2.92
2023-01-20T04:30:45.575Z,-2.97
2023-01-20T04:33:12.358Z,-2.99
2023-01-20T04:35:38.953Z,-2.93
2023-01-20T04:38:06.595Z,-3.04
2023-01-20T04:40:33.344Z,-3.15
2023-01-20T04:43:00.048Z,-3.20
2023-01-20T04:45:26.756Z,-3.18
2023-01-20T04:47:53.403Z,-3.21
2023-01-20T04:50:20.167Z,-3.21
2023-01-20T04:52:46.921Z,-3.13
2023-01-20T04:55:14.280Z,-3.06
2023-01-20T04:57:41.198Z,-3.05
2023-01-20T05:00:08.818Z,-3.00
2023-01-20T05:02:35.540Z,-3.11
2023-01-20T05:05:02.270Z,-3.03
2023-01-20T05:07:29.190Z,-3.02
2023-01-20T05:09:55.887Z,-2.99
2023-01-20T05:12:23.022Z,-2.95
2023-01-20T05:14:49.751Z,-2.98
2023-01-20T05:17:16.371Z,-2.94
2023-01-20T05:19:43.746Z,-2.93
2023-01-20T05:22:10.523Z,-2.89
2023-01-20T05:24:38.370Z,-2.91
2023-01-20T05:27:04.944Z,-2.88
2023-01-20T05:29:31.881Z,-2.86
2023-01-20T05:31:58.815Z,-2.83
2023-01-20T05:34:25.454Z,-2.82
2023-01-20T05:36:55.039Z,-2.62
2023-01-20T05:39:21.947Z,-2.67
2023-01-20T05:41:48.877Z,-2.72
2023-01-20T05:44:16.212Z,-2.82
2023-01-20T05:46:42.972Z,-2.84
2023-01-20T05:49:12.385Z,-2.89
2023-01-20T05:51:38.945Z,-2.92
2023-01-20T05:54:06.030Z,-2.86
2023-01-20T05:56:32.669Z,-2.88
2023-01-20T05:58:59.631Z,-2.96
2023-01-20T06:01:26.817Z,-2.95
2023-01-20T06:03:53.789Z,-3.00
2023-01-20T06:06:21.062Z,-2.92
2023-01-20T06:08:49.779Z,-2.98
2023-01-20T06:11:17.917Z,-3.00
2023-01-20T06:13:46.952Z,-3.01
2023-01-20T06:16:13.806Z,-3.01
2023-01-20T06:18:40.863Z,-3.01
2023-01-20T06:21:07.494Z,-3.02
2023-01-20T06:23:34.327Z,-3.03
2023-01-20T06:26:06.621Z,-3.01
2023-01-20T06:28:33.539Z,-3.07
2023-01-20T06:31:11.946Z,-3.10
2023-01-20T06:33:38.956Z,-3.13
2023-01-20T06:36:07.014Z,-3.04
2023-01-20T06:38:35.980Z,-3.01
2023-01-20T06:41:05.699Z,-3.05
2023-01-20T06:43:34.137Z,-2.97
2023-01-20T06:46:06.410Z,-2.93
2023-01-20T06:48:33.263Z,-2.97
2023-01-20T06:51:05.756Z,-3.02
2023-01-20T06:53:32.669Z,-3.01
2023-01-20T06:56:00.342Z,-2.91
2023-01-20T06:58:29.801Z,-2.87
2023-01-20T07:00:57.909Z,-2.86
2023-01-20T07:03:25.308Z,-2.81
2023-01-20T07:06:03.082Z,-2.81
2023-01-20T07:08:30.164Z,-2.81
2023-01-20T07:10:57.254Z,-2.70
2023-01-20T07:13:23.999Z,-2.46
2023-01-20T07:15:51.077Z,-2.51
2023-01-20T07:18:17.933Z,-2.29
2023-01-20T07:20:44.499Z,-2.24
2023-01-20T07:23:11.592Z,-2.26
2023-01-20T07:25:39.697Z,-1.49
2023-01-20T07:28:06.819Z,-1.19
2023-01-20T07:30:33.478Z,-0.99
2023-01-20T07:33:00.183Z,-0.68
2023-01-20T07:35:26.951Z,-0.72
2023-01-20T07:37:53.514Z,-0.92
2023-01-20T07:40:20.855Z,-0.86
2023-01-20T07:42:47.637Z,-0.92
2023-01-20T07:45:14.720Z,-1.02
2023-01-20T07:47:42.110Z,-0.95
2023-01-20T07:50:09.365Z,-0.88
2023-01-20T07:52:36.427Z,-0.73
2023-01-20T07:55:03.084Z,-0.65
2023-01-20T07:57:32.461Z,-0.47
2023-01-20T07:59:59.059Z,-0.50
2023-01-20T08:02:26.275Z,-0.40
2023-01-20T08:04:53.015Z,-0.28
2023-01-20T08:07:19.761Z,-0.16
2023-01-20T08:09:48.335Z,-0.20
2023-01-20T08:12:15.322Z,-0.27
2023-01-20T08:14:42.682Z,-0.11
2023-01-20T08:17:09.593Z,-0.15
2023-01-20T08:19:36.634Z,0.02
2023-01-20T08:22:03.209Z,0.02
2023-01-20T08:24:30.045Z,0.05
2023-01-20T08:26:57.000Z,0.07
2023-01-20T08:29:23.576Z,0.15
2023-01-20T08:31:50.570Z,0.07
2023-01-20T08:34:18.772Z,0.13
2023-01-20T08:36:45.662Z,0.14
2023-01-20T08:39:14.579Z,0.11
2023-01-20T08:41:43.630Z,0.17
2023-01-20T08:44:11.780Z,0.19
2023-01-20T08:46:41.700Z,0.29
2023-01-20T08:49:14.542Z,0.33
2023-01-20T08:51:41.712Z,0.40
2023-01-20T08:54:08.621Z,0.47
2023-01-20T08:56:36.860Z,0.47
2023-01-20T08:59:03.993Z,0.54
2023-01-20T09:01:37.833Z,0.62
2023-01-20T09:04:07.316Z,0.63
2023-01-20T09:06:45.992Z,0.78
2023-01-20T09:09:15.886Z,0.82
2023-01-20T09:11:44.985Z,0.85
2023-01-20T09:14:12.055Z,0.76
2023-01-20T09:16:38.659Z,0.97
2023-01-20T09:19:05.411Z,0.98
2023-01-20T09:21:32.008Z,1.08
2023-01-20T09:23:58.584Z,0.96
2023-01-20T09:26:35.396Z,1.09
2023-01-20T09:29:09.769Z,1.09
2023-01-20T09:31:44.407Z,1.03
2023-01-20T09:34:19.527Z,1.08
2023-01-20T09:36:51.405Z,1.13
2023-01-20T09:39:36.590Z,1.15
2023-01-20T09:42:51.655Z,1.25
2023-01-20T09:45:36.743Z,1.09
2023-01-20T09:48:52.227Z,1.08
2023-01-20T09:51:53.055Z,0.91
2023-01-20T09:54:29.128Z,0.97
2023-01-20T09:57:00.708Z,0.94
2023-01-20T09:59:36.622Z,1.01
2023-01-20T10:02:12.615Z,0.98
2023-01-20T10:04:43.881Z,0.97
2023-01-20T10:07:10.872Z,1.03
2023-01-20T10:09:56.675Z,1.06
2023-01-20T10:12:40.714Z,1.13
2023-01-20T10:15:13.993Z,1.01
2023-01-20T10:17:51.272Z,1.15
2023-01-20T10:20:35.969Z,1.10
2023-01-20T10:23:16.878Z,1.02
2023-01-20T10:26:03.262Z,0.95
2023-01-20T10:28:35.162Z,1.15
2023-01-20T10:31:04.425Z,1.16
2023-01-20T10:33:44.178Z,1.11
2023-01-20T10:36:19.919Z,1.12
2023-01-20T10:39:05.993Z,1.22
2023-01-20T10:41:45.287Z,1.31
2023-01-20T10:44:13.709Z,1.33
2023-01-20T10:46:46.277Z,1.21
2023-01-20T10:49:22.574Z,1.28
2023-01-20T10:52:09.203Z,1.42
2023-01-20T10:54:54.142Z,1.33
2023-01-20T10:57:21.116Z,1.35
2023-01-20T10:59:55.984Z,1.42
2023-01-20T11:02:35.230Z,1.41
2023-01-20T11:05:19.167Z,1.40
2023-01-20T11:07:47.206Z,1.52
2023-01-20T11:10:21.843Z,1.35
2023-01-20T11:12:52.707Z,1.50
2023-01-20T11:15:23.895Z,1.59
2023-01-20T11:18:15.354Z,1.54
2023-01-20T11:20:50.354Z,1.60
2023-01-20T11:23:47.646Z,1.72
2023-01-20T11:26:28.051Z,1.59
2023-01-20T11:29:22.208Z,1.59
2023-01-20T11:31:54.328Z,1.52
2023-01-20T11:34:36.297Z,1.48
2023-01-20T11:37:06.485Z,1.55
2023-01-20T11:39:54.011Z,1.53
2023-01-20T11:42:24.846Z,1.57
2023-01-20T11:45:15.303Z,1.33
2023-01-20T11:47:45.323Z,1.37
2023-01-20T11:50:45.524Z,1.46
2023-01-20T11:53:22.041Z,1.41
2023-01-20T11:55:51.893Z,1.35
2023-01-20T11:58:26.303Z,1.39
2023-01-20T12:01:02.193Z,1.39
2023-01-20T12:03:41.402Z,1.44
2023-01-20T12:06:15.314Z,1.51
2023-01-20T12:08:58.551Z,1.36
2023-01-20T12:11:30.771Z,1.54
2023-01-20T12:14:23.348Z,1.40
2023-01-20T12:16:53.767Z,1.43
2023-01-20T12:19:26.779Z,1.56
2023-01-20T12:21:56.978Z,1.66
2023-01-20T12:24:51.411Z,1.62
2023-01-20T12:27:25.733Z,1.61
2023-01-20T12:29:56.171Z,1.71
2023-01-20T12:32:22.870Z,1.73
2023-01-20T12:34:49.826Z,1.75
2023-01-20T12:37:27.730Z,1.81
2023-01-20T12:39:54.272Z,1.81
2023-01-20T12:42:38.780Z,1.78
2023-01-20T12:45:51.130Z,1.87
2023-01-20T12:48:49.815Z,1.92
2023-01-20T12:51:35.710Z,1.98
2023-01-20T12:54:35.769Z,1.93
2023-01-20T12:57:29.904Z,2.00
2023-01-20T13:00:34.968Z,1.89
2023-01-20T13:03:24.903Z,1.85
2023-01-20T13:06:03.593Z,2.16
2023-01-20T13:08:50.339Z,2.16
2023-01-20T13:11:40.955Z,2.32
2023-01-20T13:14:15.229Z,2.20
2023-01-20T13:16:42.884Z,2.22
2023-01-20T13:19:17.491Z,2.16
2023-01-20T13:21:44.822Z,2.16
2023-01-20T13:24:29.199Z,2.11
2023-01-20T13:27:00.638Z,2.10
2023-01-20T13:29:37.550Z,2.01
2023-01-20T13:32:24.954Z,1.85
2023-01-20T13:34:51.749Z,1.97
2023-01-20T13:37:30.909Z,1.95
2023-01-20T13:40:00.632Z,1.87
2023-01-20T13:42:36.500Z,1.90
2023-01-20T13:45:12.372Z,2.02
2023-01-20T13:47:53.134Z,1.95
2023-01-20T13:50:24.585Z,1.82
2023-01-20T13:52:52.153Z,1.97
2023-01-20T13:55:49.251Z,1.84
2023-01-20T13:58:33.131Z,2.01
2023-01-20T14:01:03.575Z,1.89
2023-01-20T14:03:36.396Z,1.93
2023-01-20T14:06:12.531Z,1.86
2023-01-20T14:08:50.949Z,1.92
2023-01-20T14:11:21.950Z,1.80
2023-01-20T14:13:54.005Z,1.75
2023-01-20T14:16:27.447Z,1.74
2023-01-20T14:18:57.216Z,1.73
2023-01-20T14:21:26.111Z,1.61
2023-01-20T14:23:54.511Z,1.58
2023-01-20T14:26:25.193Z,1.55
2023-01-20T14:28:57.940Z,1.55
2023-01-20T14:31:45.525Z,1.54
2023-01-20T14:34:22.543Z,1.45
2023-01-20T14:36:49.519Z,1.29
2023-01-20T14:39:25.484Z,1.36
2023-01-20T14:41:55.401Z,1.35
2023-01-20T14:44:25.850Z,1.40
2023-01-20T14:46:55.594Z,1.37
2023-01-20T14:49:28.563Z,1.32
2023-01-20T14:51:55.717Z,1.28
2023-01-20T14:54:45.119Z,1.29
2023-01-20T14:57:27.528Z,1.20
2023-01-20T15:00:17.436Z,1.24
2023-01-20T15:03:04.985Z,1.48
2023-01-20T15:05:39.068Z,1.32
2023-01-20T15:08:11.721Z,1.33
2023-01-20T15:10:39.276Z,1.17
2023-01-20T15:13:23.401Z,1.13
2023-01-20T15:15:50.274Z,1.09
2023-01-20T15:18:22.405Z,1.08
2023-01-20T15:21:00.941Z,1.14
2023-01-20T15:23:42.172Z,1.00
2023-01-20T15:26:18.777Z,0.88
2023-01-20T15:28:45.806Z,0.86
2023-01-20T15:31:17.329Z,0.74
2023-01-20T15:33:44.718Z,0.71
2023-01-20T15:36:23.782Z,0.69
2023-01-20T15:38:51.099Z,0.54
2023-01-20T15:41:19.084Z,0.49
2023-01-20T15:43:46.133Z,0.43
2023-01-20T15:46:15.141Z,0.45
2023-01-20T15:48:42.531Z,0.42
2023-01-20T15:51:27.603Z,0.30
2023-01-20T15:53:54.546Z,0.27
2023-01-20T15:56:26.016Z,0.24
2023-01-20T15:58:53.961Z,0.22
2023-01-20T16:01:26.139Z,0.14
2023-01-20T16:03:56.763Z,0.13
2023-01-20T16:06:29.578Z,0.36
2023-01-20T16:08:56.992Z,0.14
2023-01-20T16:11:23.685Z,0.10
2023-01-20T16:13:50.372Z,0.02
2023-01-20T16:16:19.629Z,0.04
2023-01-20T16:18:47.235Z,0.03
2023-01-20T16:21:16.555Z,-0.01
2023-01-20T16:23:44.238Z,-0.09
2023-01-20T16:26:23.562Z,-0.06
2023-01-20T16:28:52.993Z,-0.15
2023-01-20T16:31:20.897Z,-0.19
2023-01-20T16:33:48.171Z,-0.19
2023-01-20T16:36:17.769Z,-0.11
2023-01-20T16:38:45.464Z,-0.19
2023-01-20T16:41:21.403Z,0.03
2023-01-20T16:43:49.455Z,-0.03
2023-01-20T16:46:22.168Z,0.07
2023-01-20T16:48:49.123Z,0.05
2023-01-20T16:51:21.624Z,0.20
2023-01-20T16:53:48.998Z,0.17
2023-01-20T16:56:21.997Z,-0.01
2023-01-20T16:58:51.647Z,-0.11
2023-01-20T17:01:24.928Z,-0.13
2023-01-20T17:03:55.439Z,-0.13
2023-01-20T17:06:27.835Z,-0.14
2023-01-20T17:09:01.698Z,-0.27
2023-01-20T17:11:40.208Z,-0.31
2023-01-20T17:14:09.605Z,-0.25
2023-01-20T17:16:38.057Z,-0.29
2023-01-20T17:19:05.531Z,-0.45
2023-01-20T17:21:34.744Z,-0.50
2023-01-20T17:24:04.545Z,-0.57
2023-01-20T17:26:31.737Z,-0.66
2023-01-20T17:29:04.273Z,-0.73
2023-01-20T17:31:34.645Z,-0.79
2023-01-20T17:34:01.588Z,-0.80
2023-01-20T17:36:29.607Z,-0.84
2023-01-20T17:38:57.748Z,-0.90
2023-01-20T17:41:24.986Z,-0.93
2023-01-20T17:43:51.751Z,-1.01
2023-01-20T17:46:23.540Z,-0.93
2023-01-20T17:48:51.050Z,-1.01
2023-01-20T17:51:20.539Z,-1.04
2023-01-20T17:53:48.501Z,-1.06
2023-01-20T17:56:16.868Z,-1.14
2023-01-20T17:58:46.037Z,-1.12
2023-01-20T18:01:18.379Z,-1.20
2023-01-20T18:03:45.927Z,-1.26
2023-01-20T18:06:15.101Z,-1.30
2023-01-20T18:08:42.697Z,-1.33
2023-01-20T18:11:13.008Z,-1.35
2023-01-20T18:13:40.321Z,-1.37
2023-01-20T18:16:10.832Z,-1.02
2023-01-20T18:18:43.208Z,-1.15
2023-01-20T18:21:13.482Z,-1.19
2023-01-20T18:23:41.103Z,-1.25
2023-01-20T18:26:09.760Z,-1.26
2023-01-20T18:28:36.899Z,-1.31
2023-01-20T18:31:10.544Z,-1.37
2023-01-20T18:33:44.703Z,-1.38
2023-01-20T18:36:14.993Z,-1.40
2023-01-20T18:38:45.080Z,-1.46
2023-01-20T18:41:13.715Z,-1.47
2023-01-20T18:43:41.434Z,-1.48
2023-01-20T18:46:10.610Z,-1.51
2023-01-20T18:48:39.339Z,-1.50
2023-01-20T18:51:07.424Z,-1.49
2023-01-20T18:53:34.823Z,-1.46
2023-01-20T18:56:04.036Z,-1.44
2023-01-20T18:58:30.710Z,-1.36
2023-01-20T19:01:07.136Z,-1.34
2023-01-20T19:03:36.250Z,-1.36
2023-01-20T19:06:13.082Z,-1.39
2023-01-20T19:08:41.031Z,-1.35
2023-01-20T19:11:15.284Z,-1.35
2023-01-20T19:13:43.606Z,-1.33
2023-01-20T19:16:12.784Z,-1.33
2023-01-20T19:18:41.193Z,-1.34
2023-01-20T19:21:11.553Z,-1.35
2023-01-20T19:23:39.232Z,-1.39
2023-01-20T19:26:08.968Z,-1.34
2023-01-20T19:28:36.344Z,-1.35
2023-01-20T19:31:12.419Z,-1.31
2023-01-20T19:33:40.654Z,-1.29
2023-01-20T19:36:13.402Z,-1.31
2023-01-20T19:38:40.693Z,-1.42
2023-01-20T19:41:27.828Z,-1.38
2023-01-20T19:43:57.610Z,-1.41
2023-01-20T19:46:30.136Z,-1.44
2023-01-20T19:48:58.122Z,-1.43
2023-01-20T19:51:26.180Z,-1.40
2023-01-20T19:53:57.764Z,-1.38
2023-01-20T19:56:26.915Z,-1.36
2023-01-20T19:58:54.822Z,-1.34
2023-01-20T20:01:22.791Z,-1.34
2023-01-20T20:03:52.102Z,-1.32
2023-01-20T20:06:36.591Z,-1.29
2023-01-20T20:09:10.354Z,-1.32
2023-01-20T20:11:37.677Z,-1.32
2023-01-20T20:14:06.807Z,-1.34
2023-01-20T20:16:35.804Z,-1.32
2023-01-20T20:19:04.517Z,-1.33
2023-01-20T20:21:31.652Z,-1.39
2023-01-20T20:24:01.633Z,-1.40
2023-01-20T20:26:34.652Z,-1.37
2023-01-20T20:29:02.499Z,-1.46
2023-01-20T20:31:30.266Z,-1.47
2023-01-20T20:34:01.909Z,-1.45
2023-01-20T20:36:32.361Z,-1.49
2023-01-20T20:39:01.571Z,-1.48
2023-01-20T20:41:31.600Z,-1.53
2023-01-20T20:44:00.472Z,-1.52
2023-01-20T20:46:28.856Z,-1.40
2023-01-20T20:49:01.336Z,-1.42
2023-01-20T20:51:32.088Z,-1.24
2023-01-20T20:54:01.855Z,-1.37
2023-01-20T20:56:32.986Z,-1.52
2023-01-20T20:59:03.190Z,-1.51
2023-01-20T21:01:33.615Z,-1.65
2023-01-20T21:04:01.454Z,-1.73
2023-01-20T21:06:29.608Z,-1.82
2023-01-20T21:08:56.760Z,-1.83
2023-01-20T21:11:24.945Z,-1.85
2023-01-20T21:13:52.604Z,-1.85
2023-01-20T21:16:22.502Z,-1.84
2023-01-20T21:18:55.229Z,-1.84
2023-01-20T21:21:23.903Z,-1.80
2023-01-20T21:23:53.008Z,-1.76
2023-01-20T21:26:21.091Z,-1.72
2023-01-20T21:28:49.600Z,-1.51
2023-01-20T21:31:21.250Z,-1.28
2023-01-20T21:33:53.750Z,-1.28
2023-01-20T21:36:21.449Z,-1.24
2023-01-20T21:38:48.560Z,-1.32
2023-01-20T21:41:16.410Z,-1.24
2023-01-20T21:44:04.171Z,-1.29
2023-01-20T21:46:39.394Z,-1.33
2023-01-20T21:49:26.746Z,-1.39
2023-01-20T21:52:13.437Z,-1.32
2023-01-20T21:54:41.206Z,-1.25
2023-01-20T21:57:08.391Z,-1.25
2023-01-20T21:59:35.676Z,-1.11
2023-01-20T22:02:02.340Z,-1.16
2023-01-20T22:04:29.612Z,-1.16
2023-01-20T22:06:56.687Z,-1.06
2023-01-20T22:09:23.770Z,-1.03
2023-01-20T22:11:50.875Z,-1.08
2023-01-20T22:14:17.743Z,-0.98
2023-01-20T22:16:44.531Z,-1.09
2023-01-20T22:19:14.228Z,-1.13
2023-01-20T22:21:40.952Z,-1.10
2023-01-20T22:24:07.841Z,-0.87
2023-01-20T22:26:34.970Z,-0.69
2023-01-20T22:29:01.611Z,-0.58
2023-01-20T22:31:30.096Z,-0.67
2023-01-20T22:33:58.478Z,-0.44
2023-01-20T22:36:25.511Z,-0.54
2023-01-20T22:38:53.146Z,-0.71
2023-01-20T22:41:20.716Z,-0.66
2023-01-20T22:43:48.292Z,-0.58
2023-01-20T22:46:17.394Z,-0.52
2023-01-20T22:48:45.037Z,-0.66
2023-01-20T22:51:14.809Z,-0.58
2023-01-20T22:53:42.171Z,-0.60
2023-01-20T22:56:12.999Z,-0.60
2023-01-20T22:58:40.413Z,-0.67
2023-01-20T23:01:19.311Z,-0.48
2023-01-20T23:03:46.932Z,-0.65
2023-01-20T23:06:14.182Z,-0.81
2023-01-20T23:08:41.852Z,-0.89
2023-01-20T23:11:11.390Z,-0.76
2023-01-20T23:13:38.906Z,-0.97
2023-01-20T23:16:09.996Z,-0.85
2023-01-20T23:18:36.846Z,-1.07
2023-01-20T23:21:05.829Z,-1.02
2023-01-20T23:23:33.405Z,-0.81
2023-01-20T23:26:12.138Z,-0.88
2023-01-20T23:28:38.943Z,-1.01
2023-01-20T23:31:07.545Z,-0.74
2023-01-20T23:33:34.980Z,-0.80
2023-01-20T23:36:07.404Z,-0.77
2023-01-20T23:38:34.880Z,-0.88
2023-01-20T23:41:02.446Z,-0.92
2023-01-20T23:43:30.636Z,-0.90
2023-01-20T23:46:02.366Z,-0.81
2023-01-20T23:48:29.491Z,-0.79
2023-01-20T23:50:59.710Z,-0.92
2023-01-20T23:53:28.034Z,-1.00
2023-01-20T23:56:23.877Z,-1.12
2023-01-20T23:58:51.361Z,-1.15
